KPRC

Ernest A Love Field Airport

Prescott, Arizona, USA
KPRC 241729Z 2418/2518 VRB06KT P6SM SCT090 FM241900 22010G18KT P6SM BKN070 FM250100 20006KT P6SM SCT070
Issued Valid From Valid To
Sep-24 @ 17:29 UTC
(2 hours ago)
Sep-24 @ 18:00 UTC
(an hour ago)
Sep-25 @ 18:00 UTC
(in 23 hours)
Expired Click to View Sep-24 @ 18:00 to Sep-24 @ 19:00
KPRC 241729Z 2418/2518 VRB06KT P6SM SCT090
Wind Visibility Clouds
Variable at 6 knots Greater than 6 miles
  • Scattered at 9,000' AGL
From Sep-24 @ 19:00 to Sep-25 @ 01:00
FM241900 22010G18KT P6SM BKN070
Wind Visibility Clouds
220° at 10 knots
 Gusting to 18 knots
Greater than 6 miles
  • Broken at 7,000' AGL
From Sep-25 @ 01:00 to Sep-25 @ 18:00
FM250100 20006KT P6SM SCT070
Wind Visibility Clouds
200° at 6 knots Greater than 6 miles
  • Scattered at 7,000' AGL
KPRC 241729Z 2418/2518 VRB06KT P6SM SCT090 FM241900 22010G18KT P6SM BKN070 FM250100 20006KT P6SM SCT070
Issued Sep-24 @ 17:29 UTC
(2 hours ago)
Valid From Sep-24 @ 18:00 UTC
(an hour ago)
Valid To Sep-25 @ 18:00 UTC
(in 23 hours)
Sep-24 @ 18:00 - Sep-24 @ 19:00
Wind Visibility
Variable at 6 knots Greater than 6 miles
Clouds
  • Scattered at 9,000' AGL
From Sep-24 @ 19:00 - Sep-25 @ 01:00
Wind Visibility
220° at 10 knots
 Gusting to 18 knots
Greater than 6 miles
Clouds
  • Broken at 7,000' AGL
From Sep-25 @ 01:00 - Sep-25 @ 18:00
Wind Visibility
200° at 6 knots Greater than 6 miles
Clouds
  • Scattered at 7,000' AGL